• Join FlightAware (Why Join?)
  • Login
  • US Flag 
11:12PM EST


 

Airport Tracker/Info


-or-


 

Live Flight TrackerFlight Track Log ✈ UPS1083 ✈ 25-Jul-2013 ✈ KEWR - KSDF

Flight Track Log - Related Links

Times and Time Zones

All times are in EDT time to prevent confusion due to time zone crossing. See the UPS1083 flight status page for this flight to view local times or setup timezone preferences in your user account.

Time Position Orientation Groundspeed Altitude Reporting Facility
EDT Latitude Longitude Course Direction KTS MPH feet Rate Location/Type
10:41PM 40.7240 -74.1320 48° Northeast 209 241 2,300  Level FlightAware
10:41PM 40.7332 -74.1190 47° Northeast 222 255 3,000 3,120 Climbing FlightAware ADS-B
10:41PM 40.7403 -74.1086 48° Northeast 237 273 3,500 3,180 Climbing FlightAware ADS-B
10:41PM 40.7443 -74.1035 44° Northeast 241 277 3,800 3,780 Climbing FlightAware ADS-B
10:41PM 40.7498 -74.0987 33° Northeast 246 283 4,200 3,000 Climbing FlightAware ADS-B
10:41PM 40.7583 -74.0944 21° North 256 295 4,500 2,460 Climbing FlightAware ADS-B
10:41PM 40.7633 -74.0932 10° North 262 302 4,700 1,980 Climbing FlightAware ADS-B
10:41PM 40.7691 -74.0928 North 270 311 4,800 2,220 Climbing FlightAware ADS-B
10:41PM 40.7730 -74.0931 357° North 273 314 5,000 4,980 Climbing FlightAware ADS-B
10:42PM 40.7770 -74.0939 351° North 272 313 5,300 4,500 Climbing FlightAware ADS-B
10:42PM 40.7833 -74.0962 345° North 273 314 5,600 3,720 Climbing FlightAware ADS-B
10:42PM 40.7869 -74.0981 338° Northwest 274 315 5,800 4,260 Climbing FlightAware ADS-B
10:42PM 40.7909 -74.1009 332° Northwest 274 315 6,100 4,500 Climbing FlightAware ADS-B
10:42PM 40.7957 -74.1053 325° Northwest 274 315 6,400 4,260 Climbing FlightAware ADS-B
10:42PM 40.7980 -74.1079 319° Northwest 275 316 6,600 3,600 Climbing FlightAware ADS-B
10:42PM 40.7996 -74.1099 317° Northwest 276 318 6,700 2,400 Climbing FlightAware ADS-B
10:42PM 40.8130 -74.1395 301° West 286 329 7,500 2,220 Climbing FlightAware ADS-B
10:42PM 40.8143 -74.1466 284° West 286 329 7,600 1,980 Climbing FlightAware ADS-B
10:42PM 40.8148 -74.1500 281° West 287 330 7,700 1,200 Climbing FlightAware ADS-B
10:42PM 40.8151 -74.1552 274° West 286 329 7,700  Level FlightAware ADS-B
10:42PM 40.8152 -74.1579 273° West 286 329 7,700 720 Level FlightAware ADS-B
10:42PM 40.8152 -74.1684 270° West 289 333 7,800 300 Climbing FlightAware ADS-B
10:43PM 40.8148 -74.1915 269° West 289 333 7,800  Level FlightAware ADS-B
10:43PM 40.8148 -74.1937 270° West 289 333 7,800 360 Level FlightAware ADS-B
10:43PM 40.8143 -74.2190 269° West 289 333 7,900 360 Climbing FlightAware ADS-B
10:43PM 40.8143 -74.2206 270° West 289 333 7,900 360 Level FlightAware ADS-B
10:43PM 40.8140 -74.2460 269° West 288 331 8,000 960 Climbing FlightAware ADS-B
10:43PM 40.8136 -74.2744 269° West 287 330 8,400 1,380 Climbing FlightAware ADS-B
10:43PM 40.8136 -74.2753 270° West 288 331 8,400 1,080 Level FlightAware ADS-B
10:44PM 40.8129 -74.3020 268° West 288 331 8,700 1,080 Climbing FlightAware ADS-B
10:44PM 40.8128 -74.3038 266° West 287 330 8,700 1,380 Level FlightAware ADS-B
10:44PM 40.8120 -74.3315 268° West 285 328 9,100 1,620 Climbing FlightAware ADS-B
10:44PM 40.8118 -74.3356 266° West 284 327 9,200 2,520 Climbing FlightAware ADS-B
10:44PM 40.8109 -74.3649 268° West 286 329 9,900 2,520 Climbing FlightAware ADS-B
10:45PM 40.8103 -74.3839 268° West 286 329 10,400 1,500 Climbing FlightAware ADS-B
10:45PM 40.8091 -74.4237 268° West 330 380 10,700 780 Climbing FlightAware ADS-B
10:45PM 40.8082 -74.4568 268° West 363 418 10,900 1,500 Climbing FlightAware ADS-B
10:45PM 40.8073 -74.4909 268° West 376 433 11,500 2,460 Climbing FlightAware ADS-B
10:46PM 40.8062 -74.5398 268° West 387 445 12,400 2,880 Climbing FlightAware ADS-B
10:46PM 40.8059 -74.5688 269° West 396 456 13,100 3,660 Climbing FlightAware ADS-B
10:46PM 40.8063 -74.6426 270° West 401 461 15,000 3,360 Climbing FlightAware ADS-B
10:47PM 40.8061 -74.7167 270° West 407 468 16,500 1,860 Climbing FlightAware ADS-B
10:47PM 40.8057 -74.7914 270° West 405 466 16,900 360 Climbing FlightAware ADS-B
10:48PM 40.8050 -74.8658 269° West 407 468 16,900 240 Level FlightAware ADS-B
10:48PM 40.8046 -74.9412 270° West 407 468 17,200 1,560 Climbing FlightAware ADS-B
10:49PM 40.8042 -75.0161 270° West 414 476 18,500 2,460 Climbing FlightAware ADS-B
10:49PM 40.8036 -75.0939 269° West 426 490 19,700 2,400 Climbing FlightAware ADS-B
10:50PM 40.8015 -75.1331 266° West 429 494 20,300 2,400 Climbing FlightAware ADS-B
10:50PM 40.7902 -75.2117 259° West 438 504 21,500 2,220 Climbing FlightAware ADS-B
10:51PM 40.7787 -75.2925 259° West 451 519 22,600 2,220 Climbing FlightAware ADS-B
10:51PM 40.7704 -75.3484 259° West 456 525 23,400 2,160 Climbing FlightAware ADS-B
10:51PM 40.7635 -75.3806 254° West 457 526 23,800 2,100 Climbing FlightAware ADS-B
10:51PM 40.7581 -75.4003 250° West 457 526 24,100 2,280 Climbing FlightAware ADS-B
10:51PM 40.7530 -75.4160 247° West 457 526 24,300 2,460 Climbing FlightAware ADS-B
10:52PM 40.7245 -75.4914 244° Southwest 459 528 25,600 2,160 Climbing FlightAware ADS-B
10:52PM 40.6964 -75.5679 244° Southwest 467 537 26,500 1,920 Climbing FlightAware ADS-B
10:53PM 40.6672 -75.6464 244° Southwest 472 543 27,600 1,920 Climbing FlightAware ADS-B
10:54PM 40.6371 -75.7259 244° Southwest 479 551 28,500 2,220 Climbing FlightAware ADS-B
10:54PM 40.6069 -75.8052 243° Southwest 471 542 29,900 3,300 Climbing FlightAware ADS-B
10:55PM 40.5780 -75.8823 244° Southwest 450 518 31,900 2,940 Climbing FlightAware ADS-B
10:55PM 40.5481 -75.9607 243° Southwest 449 517 33,000 1,860 Climbing FlightAware ADS-B
10:56PM 40.5202 -76.0346 244° Southwest 448 516 33,900 1,560 Climbing FlightAware ADS-B
10:56PM 40.4921 -76.1078 243° Southwest 450 518 34,600 1,080 Climbing FlightAware ADS-B
10:57PM 40.4626 -76.1849 243° Southwest 460 529 35,000 1,080 Climbing FlightAware ADS-B
10:57PM 40.4335 -76.2601 243° Southwest 461 531 35,700 1,440 Climbing FlightAware ADS-B
10:58PM 40.4041 -76.3362 243° Southwest 458 527 36,500 2,040 Climbing FlightAware ADS-B
10:58PM 40.3762 -76.4094 243° Southwest 443 510 37,800 1,440 Climbing FlightAware ADS-B
10:59PM 40.3482 -76.4821 243° Southwest 435 501 38,000 180 Climbing FlightAware ADS-B
10:59PM 40.3274 -76.5311 241° Southwest 426 490 38,000  Level FlightAware ADS-B
10:59PM 40.3118 -76.5587 233° Southwest 422 486 38,000  Level FlightAware ADS-B
11:00PM 40.2874 -76.6054 236° Southwest 427 491 38,000  Level FlightAware ADS-B
11:00PM 40.2809 -76.6166 233° Southwest 425 489 38,000  Level FlightAware ADS-B
11:00PM 40.2407 -76.6736 227° Southwest 427 491 38,000  Level FlightAware ADS-B
11:01PM 40.2001 -76.7314 227° Southwest 428 493 38,000  Level FlightAware ADS-B
11:01PM 40.1628 -76.7845 227° Southwest 428 493 38,000  Level FlightAware ADS-B
11:01PM 40.1494 -76.8085 234° Southwest 435 501 38,000  Level FlightAware ADS-B
11:01PM 40.1431 -76.8229 240° Southwest 439 505 38,000  Level FlightAware ADS-B
11:02PM 40.1204 -76.8989 249° West 448 516 38,000  Level FlightAware ADS-B
11:02PM 40.0971 -76.9786 249° West 451 519 38,000  Level FlightAware ADS-B
11:03PM 40.0659 -77.0854 249° West 456 525 38,000  Level FlightAware ADS-B
11:04PM 40.0426 -77.1652 249° West 456 525 38,000  Level FlightAware ADS-B
11:04PM 40.0194 -77.2435 249° West 456 525 38,000  Level FlightAware ADS-B
11:05PM 39.9965 -77.3202 249° West 455 524 38,000  Level FlightAware ADS-B
11:05PM 39.9725 -77.4004 249° West 457 526 38,000  Level FlightAware ADS-B
11:06PM 39.9342 -77.5281 249° West 459 528 38,000  Level FlightAware ADS-B
11:07PM 39.9110 -77.6057 249° West 460 529 38,000  Level FlightAware ADS-B
11:07PM 39.8864 -77.6878 249° West 462 532 38,000  Level FlightAware ADS-B
11:08PM 39.8627 -77.7667 249° West 463 533 38,000  Level FlightAware ADS-B
11:08PM 39.8320 -77.8680 248° West 465 535 38,000  Level FlightAware
11:08PM 39.8250 -77.8909 248° West 465 535 38,000  Level FlightAware ADS-B
11:09PM 39.8010 -77.9700 248° West 465 535 38,000  Level FlightAware
11:09PM 39.7855 -78.0208 248° West 466 536 38,000 120 Level FlightAware ADS-B
11:10PM 39.7605 -78.1027 248° West 466 536 38,100 60 Climbing FlightAware ADS-B
11:10PM 39.7300 -78.2030 248° West 467 537 38,100 -120 Level FlightAware
11:11PM 39.6970 -78.3080 248° West 468 539 38,000 -120 Descending FlightAware
11:12PM 39.6640 -78.4160 248° West 468 539 38,000  Level FlightAware
11:12PM 39.6350 -78.5100 248° West 468 539 38,000  Level FlightAware
11:13PM 39.6020 -78.6160 248° West 469 540 38,000  Level FlightAware
11:14PM 39.5670 -78.7290 248° West 469 540 38,000  Level FlightAware
11:14PM 39.5390 -78.8170 248° West 469 540 38,000  Level FlightAware
11:15PM 39.5030 -78.9330 248° West 468 539 38,000  Level FlightAware
11:16PM 39.4700 -79.0350 247° West 469 540 38,000  Level FlightAware
11:16PM 39.4340 -79.1500 248° West 467 537 38,000  Level FlightAware
11:17PM 39.4010 -79.2520 247° West 469 540 38,000  Level FlightAware
11:18PM 39.3690 -79.3550 248° West 470 541 38,000  Level FlightAware
11:19PM 39.3300 -79.4750 247° West 472 543 38,000  Level FlightAware
11:19PM 39.3050 -79.5520 247° West 472 543 38,000 60 Level FlightAware
11:20PM 39.2680 -79.6670 247° West 472 543 38,100 60 Climbing FlightAware
11:21PM 39.2310 -79.7810 247° West 472 543 38,100 -120 Level FlightAware
11:21PM 39.2040 -79.8640 247° West 475 547 38,000  Descending FlightAware
11:22PM 39.1650 -79.9820 247° West 475 547 38,100 60 Climbing FlightAware
11:22PM 39.1310 -80.0890 248° West 474 545 38,100  Level FlightAware
11:23PM 39.0970 -80.1890 246° West 473 544 38,100 -120 Level FlightAware
11:24PM 39.0600 -80.3020 247° West 466 536 38,000 -120 Descending FlightAware
11:25PM 39.0220 -80.4150 247° West 460 529 38,000  Level FlightAware
11:25PM 38.9880 -80.5170 247° West 460 529 38,000  Level FlightAware
11:26PM 38.9520 -80.6250 247° West 468 539 38,000  Level FlightAware
11:27PM 38.9130 -80.7440 247° West 477 549 38,000 60 Level FlightAware
11:27PM 38.8760 -80.8520 246° West 483 556 38,100  Climbing FlightAware
11:28PM 38.8430 -80.9500 247° West 483 556 38,000 -120 Descending FlightAware
11:29PM 38.8050 -81.0620 247° West 476 548 38,000  Level FlightAware
11:29PM 38.7690 -81.1670 246° West 468 539 38,000  Level FlightAware
11:30PM 38.7300 -81.2790 246° West 463 533 38,000  Level FlightAware
11:31PM 38.6960 -81.3800 247° West 459 528 38,000  Level FlightAware
11:32PM 38.6620 -81.4790 246° West 456 525 38,000  Level FlightAware
11:32PM 38.6230 -81.5910 246° West 455 524 38,000  Level FlightAware
11:33PM 38.5930 -81.6780 246° West 452 520 38,000  Level FlightAware
11:34PM 38.5600 -81.7740 246° West 451 519 38,000  Level FlightAware
11:34PM 38.5240 -81.8760 246° West 448 516 38,000  Level FlightAware
11:35PM 38.4910 -81.9700 246° West 446 513 38,000  Level FlightAware
11:36PM 38.4600 -82.0580 246° West 444 511 38,000  Level FlightAware
11:36PM 38.4230 -82.1640 246° West 442 509 38,000  Level FlightAware
11:37PM 38.3890 -82.2590 245° Southwest 441 507 38,000  Level FlightAware
11:38PM 38.3560 -82.3530 246° West 441 507 38,000  Level FlightAware
11:38PM 38.3190 -82.4560 245° Southwest 444 511 38,000 -360 Level FlightAware
11:39PM 38.2810 -82.5620 245° Southwest 450 518 37,500 -1,740 Descending FlightAware
11:40PM 38.2480 -82.6580 246° West 455 524 35,600 -3,120 Descending FlightAware
11:40PM 38.2160 -82.7460 245° Southwest 476 548 33,600 -2,700 Descending FlightAware
11:41PM 38.1750 -82.8560 245° Southwest 470 541 32,100 -1,200 Descending FlightAware
11:42PM 38.1390 -82.9560 245° Southwest 476 548 32,000 -120 Descending FlightAware
11:42PM 38.1090 -83.0400 246° West 472 543 32,000  Level FlightAware
11:43PM 38.0749 -83.1330 245° Southwest 469 540 32,000  Level FlightAware ADS-B
11:43PM 38.0469 -83.2092 245° Southwest 469 540 32,000  Level FlightAware ADS-B
11:44PM 38.0192 -83.2850 245° Southwest 470 541 32,000  Level FlightAware ADS-B
11:45PM 37.9755 -83.4041 245° Southwest 470 541 32,000 -1,440 Level FlightAware ADS-B
11:50PM 37.6799 -84.1964 245° Southwest 489 563 23,500 -1,740 Descending FlightAware ADS-B
11:50PM 37.6500 -84.2760 245° Southwest 471 542 22,100 -2,700 Descending FlightAware
11:51PM 37.6089 -84.3839 244° Southwest 453 521 20,100 -1,440 Descending FlightAware ADS-B
11:52PM 37.5850 -84.4450 244° Southwest 451 519 20,300 -2,520 Climbing FlightAware
11:53PM 37.5372 -84.5714 244° Southwest 438 504 16,600 -1,800 Descending Indianapolis Center
11:58PM 37.7450 -85.0780 244° Southwest 283 326 9,400 -1,380 Descending FlightAware
11:58PM 37.7680 -85.1110 311° West 277 319 9,000 -960 Descending FlightAware
11:59PM 37.7920 -85.1440 313° West 277 319 8,600 -960 Descending FlightAware
11:59PM 37.8010 -85.1570 311° West 274 315 8,400 -540 Descending FlightAware
12:00AM 37.8380 -85.2080 313° West 274 315 8,100 -900 Descending FlightAware
12:00AM 37.8650 -85.2460 312° West 271 312 7,300 -1,380 Descending FlightAware
12:01AM 37.8870 -85.2760 313° West 269 310 6,900 -960 Descending FlightAware
12:01AM 37.9060 -85.3350 292° West 270 311 6,300 -960 Descending FlightAware
12:02AM 37.9120 -85.3730 281° West 269 310 5,900 -1,020 Descending FlightAware
12:02AM 37.9030 -85.4320 259° West 266 306 5,300 -1,080 Descending FlightAware
12:02AM 37.8990 -85.4500 254° West 266 306 5,100 -840 Descending FlightAware
12:03AM 37.8880 -85.4830 247° West 265 305 4,800 -840 Descending FlightAware
12:03AM 37.8780 -85.5140 248° West 262 302 4,500 -900 Descending FlightAware
12:04AM 37.8600 -85.5530 240° Southwest 248 285 4,000 -1,020 Descending FlightAware
12:04AM 37.8470 -85.5590 200° South 241 277 3,800 -1,020 Descending FlightAware
12:04AM 37.8280 -85.5640 192° South 226 260 3,500 -840 Descending FlightAware
12:04AM 37.8200 -85.5690 206° Southwest 220 253 3,400 -960 Descending FlightAware
12:05AM 37.8120 -85.5860 239° Southwest 209 241 3,100 -900 Descending FlightAware
12:05AM 37.8180 -85.6130 286° West 192 221 2,800 -360 Descending FlightAware
12:06AM 37.8340 -85.6360 311° West 182 209 2,800  Level FlightAware
12:06AM 37.8430 -85.6380 350° North 184 212 2,800  Level FlightAware
12:06AM 37.8590 -85.6360 North 189 217 2,800  Level FlightAware
12:06AM 37.8730 -85.6350 North 188 216 2,800  Level FlightAware
12:07AM 37.8900 -85.6330 North 188 216 2,800  Level FlightAware
12:07AM 37.9080 -85.6380 348° North 189 217 2,800  Level FlightAware
12:07AM 37.9280 -85.6430 349° North 189 217 2,800  Level FlightAware
12:08AM 37.9500 -85.6500 346° North 190 219 2,800  Level FlightAware
12:08AM 37.9700 -85.6570 345° North 189 217 2,800  Level FlightAware
12:09AM 37.9830 -85.6620 343° North 189 217 2,800  Level FlightAware
12:09AM 38.0080 -85.6700 346° North 189 217 2,800  Level FlightAware
12:09AM 38.0280 -85.6770 345° North 190 219 2,800 -120 Level FlightAware
12:10AM 38.0530 -85.6850 346° North 186 214 2,700 -600 Descending FlightAware
12:10AM 38.0710 -85.6920 343° North 179 206 2,300 -1,080 Descending FlightAware
12:11AM 38.0820 -85.6950 348° North 172 198 2,000 -960 Descending FlightAware
12:11AM 38.1050 -85.7030 345° North 155 178 1,600 -900 Descending FlightAware
12:11AM 38.1250 -85.7100 345° North 152 175 1,200 -840 Descending FlightAware
12:12AM 38.1410 -85.7160 344° North 150 173 900 -780 Descending FlightAware
12:12AM 38.1560 -85.7210 345° North 146 168 600 -840 Descending FlightAware
12:13AM 38.1780 -85.7280 346° North 64 74 -1,020 Descending FlightAware
12:14AM 38.1840 -85.7300 345° North 25 29  Level FlightAware
12:14AM 38.1830 -85.7330 247° West 29 33  Level FlightAware
12:15AM 38.1790 -85.7340 191° South 34 39  Level FlightAware
12:17AM 38.1780 -85.7370 247° West 18 21  Level FlightAware
12:17AM 38.1790 -85.7400 293° West 15 17  Level FlightAware
12:17AM 38.1800 -85.7420 302° West 17 20  Level FlightAware
12:18AM 38.1800 -85.7430 270° West 34 39  Level FlightAware